Time;durP1;ratioP1;P1;durP2;ratioP2;P2;SDS_P1;SDS_P2;PMS_P1;PMS_P2;Temp;Humidity;BMP_temperature;BMP_pressure;BME280_temperature;BME280_humidity;BME280_pressure;Samples;Min_cycle;Max_cycle;Signal;HPM_P1;HPM_P2
2022/01/12 00:02:12;;;;;;;220.75;113.90;;;-3.80;99.90;;;;;;5060334;28;20264;-51
2022/01/12 00:04:40;;;;;;;208.23;119.65;;;-3.70;99.90;;;;;;5060572;28;20264;-47
2022/01/12 00:07:08;;;;;;;233.70;121.53;;;-3.60;99.90;;;;;;5060536;28;20195;-52
2022/01/12 00:09:35;;;;;;;219.02;112.15;;;-3.60;99.90;;;;;;5059605;28;20219;-47
2022/01/12 00:12:04;;;;;;;225.23;117.40;;;-3.70;99.90;;;;;;5060072;28;20199;-48
2022/01/12 00:14:32;;;;;;;227.15;113.53;;;-3.80;99.90;;;;;;5060002;28;20215;-47
2022/01/12 00:17:00;;;;;;;198.45;107.97;;;-3.60;99.90;;;;;;5061157;28;20217;-46
2022/01/12 00:19:28;;;;;;;212.35;110.78;;;-3.50;99.90;;;;;;5063163;28;20203;-49
2022/01/12 00:21:57;;;;;;;220.63;114.97;;;-3.70;99.90;;;;;;5060151;28;20231;-47
2022/01/12 00:24:28;;;;;;;236.88;115.45;;;-3.70;99.90;;;;;;5059912;28;20628;-48
2022/01/12 00:35:13;;;;;;;211.70;110.65;;;-3.90;99.90;;;;;;5059901;28;20218;-47
2022/01/12 00:37:40;;;;;;;232.73;116.20;;;-3.90;99.90;;;;;;5059444;28;20241;-47
2022/01/12 00:40:08;;;;;;;198.48;108.07;;;-3.90;99.90;;;;;;5059917;28;20196;-49
2022/01/12 00:42:35;;;;;;;223.68;116.53;;;-3.80;99.90;;;;;;5059554;28;20463;-46
2022/01/12 00:45:04;;;;;;;202.32;112.70;;;-3.80;99.90;;;;;;5060088;28;20226;-48
2022/01/12 00:47:31;;;;;;;217.85;112.93;;;-3.90;99.90;;;;;;5059585;28;20188;-50
2022/01/12 00:49:59;;;;;;;220.30;113.88;;;-4.10;99.90;;;;;;5060501;28;20235;-45
2022/01/12 00:52:27;;;;;;;208.57;106.75;;;-4.20;99.90;;;;;;5061671;28;20545;-48
2022/01/12 00:54:54;;;;;;;235.10;117.55;;;-4.30;99.90;;;;;;5059886;28;20215;-50
2022/01/12 00:57:21;;;;;;;233.73;118.20;;;-4.20;99.90;;;;;;5059264;28;20522;-52
2022/01/12 00:59:48;;;;;;;227.20;114.03;;;-4.20;99.90;;;;;;5058985;28;20200;-50
2022/01/12 01:02:15;;;;;;;220.40;112.88;;;-4.10;99.90;;;;;;5063709;28;20219;-53
2022/01/12 01:04:43;;;;;;;220.07;114.70;;;-4.30;99.90;;;;;;5064744;28;20224;-48
2022/01/12 01:07:10;;;;;;;207.32;116.88;;;-4.40;99.90;;;;;;5064951;28;20445;-51
2022/01/12 01:09:43;;;;;;;223.20;116.30;;;-4.40;99.90;;;;;;5064443;28;20246;-49
2022/01/12 01:12:11;;;;;;;224.65;120.55;;;-4.30;99.90;;;;;;5068926;28;20200;-51
2022/01/12 01:15:01;;;;;;;221.80;115.60;;;-4.40;99.90;;;;;;5072221;28;20322;-51
2022/01/12 01:25:51;;;;;;;244.25;119.05;;;-4.40;99.90;;;;;;5062712;28;20250;-45
2022/01/12 01:28:18;;;;;;;229.05;117.13;;;-4.30;99.90;;;;;;5062191;28;20534;-46
2022/01/12 01:30:46;;;;;;;234.70;119.20;;;-4.20;99.90;;;;;;5062929;28;20441;-50
2022/01/12 01:33:17;;;;;;;227.93;120.97;;;-4.20;99.90;;;;;;5063154;28;20255;-47
2022/01/12 01:35:54;;;;;;;220.40;114.40;;;-4.50;99.90;;;;;;5062994;28;20203;-46
2022/01/12 01:38:21;;;;;;;226.10;114.07;;;-4.60;99.90;;;;;;5063019;28;20425;-45
2022/01/12 01:40:49;;;;;;;215.75;114.40;;;-4.70;99.90;;;;;;5062607;28;20441;-47
2022/01/12 01:54:03;;;;;;;180.50;98.38;;;-4.70;99.90;;;;;;5066280;28;20219;-46
2022/01/12 01:56:31;;;;;;;187.63;98.38;;;-4.70;99.90;;;;;;5065080;28;20196;-52
2022/01/12 01:58:58;;;;;;;177.93;95.90;;;-4.70;99.90;;;;;;5066963;28;20230;-53
2022/01/12 02:01:26;;;;;;;195.93;95.82;;;-4.60;99.90;;;;;;5066005;28;20473;-46
2022/01/12 02:03:55;;;;;;;191.80;94.40;;;-4.80;99.90;;;;;;5063412;28;20576;-52
2022/01/12 02:06:23;;;;;;;182.98;95.53;;;-4.70;99.90;;;;;;5063136;28;20207;-48
2022/01/12 02:08:51;;;;;;;175.73;92.13;;;-4.70;99.90;;;;;;5062603;28;20241;-50
2022/01/12 02:11:25;;;;;;;168.18;88.22;;;-5.00;99.90;;;;;;5062852;28;20196;-48
2022/01/12 02:13:53;;;;;;;185.45;92.90;;;-4.90;99.90;;;;;;5063463;28;20433;-54
2022/01/12 02:16:29;;;;;;;165.95;89.45;;;-4.70;99.90;;;;;;5064288;28;20238;-52
2022/01/12 02:19:30;;;;;;;172.70;95.68;;;-4.80;99.90;;;;;;5066233;28;20509;-54
2022/01/12 02:36:06;;;;;;;178.38;88.10;;;-5.00;99.90;;;;;;5061674;28;20383;-48
2022/01/12 02:41:19;;;;;;;167.00;89.78;;;-4.40;99.90;;;;;;5053440;28;20192;-47
2022/01/12 02:54:53;;;;;;;180.27;87.35;;;-4.50;99.90;;;;;;5061099;28;20220;-45
2022/01/12 02:57:21;;;;;;;191.82;97.03;;;-4.40;99.90;;;;;;5060930;28;20249;-49
2022/01/12 03:00:04;;;;;;;182.52;94.00;;;-4.40;99.90;;;;;;5060766;28;20452;-50
2022/01/12 03:02:37;;;;;;;198.52;89.53;;;-4.30;99.90;;;;;;5060710;28;20199;-49
2022/01/12 03:08:15;;;;;;;166.70;78.68;;;-4.40;99.90;;;;;;5018635;28;20464;-46
2022/01/12 03:10:42;;;;;;;188.10;85.72;;;-4.30;99.90;;;;;;5052861;28;20208;-48
2022/01/12 03:13:09;;;;;;;156.82;80.22;;;-4.30;99.90;;;;;;5060912;28;20230;-48
2022/01/12 03:15:40;;;;;;;185.15;86.10;;;-4.30;99.90;;;;;;5060725;28;20246;-53
2022/01/12 03:18:08;;;;;;;199.05;93.88;;;-4.30;99.90;;;;;;5060630;28;20544;-50
2022/01/12 03:20:38;;;;;;;209.85;99.03;;;-4.60;99.90;;;;;;5060990;28;20207;-52
2022/01/12 03:23:06;;;;;;;192.77;86.40;;;-4.60;99.90;;;;;;5060995;28;20215;-49
2022/01/12 03:25:33;;;;;;;189.63;85.35;;;-4.60;99.90;;;;;;5061618;28;20548;-46
2022/01/12 03:28:02;;;;;;;179.43;83.57;;;-4.50;99.90;;;;;;5061073;28;20368;-46
2022/01/12 03:30:37;;;;;;;155.32;80.82;;;-4.70;99.90;;;;;;5060550;28;20595;-46
2022/01/12 03:33:17;;;;;;;171.48;84.68;;;-4.70;99.90;;;;;;5060557;28;20219;-46
2022/01/12 03:35:51;;;;;;;168.75;80.25;;;-4.80;99.90;;;;;;5061521;28;20203;-53
2022/01/12 03:38:35;;;;;;;162.00;75.45;;;-4.80;99.90;;;;;;5062245;28;20421;-52
2022/01/12 03:41:21;;;;;;;150.65;78.90;;;-4.80;99.90;;;;;;5064190;28;20230;-47
2022/01/12 03:44:08;;;;;;;181.70;82.90;;;-4.70;99.90;;;;;;5062591;28;20228;-49
2022/01/12 03:46:53;;;;;;;142.18;71.85;;;-5.00;99.90;;;;;;5065430;28;20232;-50
2022/01/12 03:49:38;;;;;;;148.05;77.20;;;-4.90;99.90;;;;;;5064959;28;20237;-45
2022/01/12 03:52:23;;;;;;;161.32;84.40;;;-4.90;99.90;;;;;;5062990;28;20281;-55
2022/01/12 03:55:07;;;;;;;136.35;67.93;;;-4.90;99.90;;;;;;5064322;28;20235;-48
2022/01/12 03:57:52;;;;;;;144.10;74.10;;;-5.00;99.90;;;;;;5061791;28;20378;-51
2022/01/12 04:00:37;;;;;;;132.07;65.88;;;-5.00;99.90;;;;;;5060153;28;20194;-52
2022/01/12 04:03:25;;;;;;;132.90;68.10;;;-5.40;99.90;;;;;;5060467;28;20279;-47
2022/01/12 04:08:55;;;;;;;147.27;69.68;;;-5.60;99.90;;;;;;5059955;28;20223;-46
2022/01/12 04:11:22;;;;;;;128.48;73.55;;;-5.70;99.90;;;;;;5060232;28;20203;-49
2022/01/12 04:13:50;;;;;;;159.70;73.72;;;-5.50;99.90;;;;;;5059568;28;20223;-45
2022/01/12 04:16:17;;;;;;;137.88;75.90;;;-5.50;99.90;;;;;;5059962;28;20195;-46
2022/01/12 04:18:44;;;;;;;156.75;79.90;;;-5.40;99.90;;;;;;5059611;28;20207;-47
2022/01/12 04:21:13;;;;;;;147.35;79.72;;;-5.40;99.90;;;;;;5060714;28;20199;-47
2022/01/12 04:23:41;;;;;;;166.82;79.18;;;-5.30;99.90;;;;;;5059695;28;20219;-45
2022/01/12 04:26:12;;;;;;;150.63;76.35;;;-5.30;99.90;;;;;;5063726;28;20210;-48
2022/01/12 04:28:41;;;;;;;133.30;65.22;;;-5.30;99.90;;;;;;5061650;28;20231;-50
2022/01/12 04:31:09;;;;;;;137.95;68.55;;;-5.40;99.90;;;;;;5060404;28;20264;-48
2022/01/12 04:33:39;;;;;;;136.63;68.18;;;-5.40;99.90;;;;;;5060601;28;20488;-49
2022/01/12 04:36:07;;;;;;;145.48;70.70;;;-5.40;99.90;;;;;;5060448;28;20203;-50
2022/01/12 04:38:36;;;;;;;126.00;67.25;;;-5.50;99.90;;;;;;5064114;28;20213;-53
2022/01/12 04:41:06;;;;;;;159.15;74.40;;;-5.50;99.90;;;;;;5063738;28;20538;-45
2022/01/12 04:43:35;;;;;;;137.43;73.53;;;-5.40;99.90;;;;;;5064177;28;20215;-47
2022/01/12 04:48:49;;;;;;;140.82;70.65;;;-5.40;99.90;;;;;;5063528;28;20188;-51
2022/01/12 04:51:17;;;;;;;127.30;65.82;;;-5.60;99.90;;;;;;5063240;28;20245;-52
2022/01/12 04:53:45;;;;;;;138.50;71.10;;;-5.50;99.90;;;;;;5063215;28;20465;-46
2022/01/12 04:56:12;;;;;;;141.43;77.65;;;-5.70;99.90;;;;;;5063160;28;20202;-47
2022/01/12 04:58:39;;;;;;;197.82;87.82;;;-5.70;99.90;;;;;;5062848;28;20199;-51
2022/01/12 05:01:21;;;;;;;157.30;79.32;;;-5.90;99.90;;;;;;5062883;28;20514;-48
2022/01/12 05:09:49;;;;;;;145.57;75.80;;;-5.70;99.90;;;;;;5062475;28;20223;-47
2022/01/12 05:14:50;;;;;;;148.00;71.68;;;-5.80;99.90;;;;;;5066828;28;20216;-55
2022/01/12 05:17:18;;;;;;;145.43;70.85;;;-5.70;99.90;;;;;;5063125;28;20260;-45
2022/01/12 05:19:45;;;;;;;175.20;79.00;;;-5.80;99.90;;;;;;5063621;28;20360;-47
2022/01/12 05:22:13;;;;;;;154.00;84.95;;;-5.70;99.90;;;;;;5065744;28;20257;-52
2022/01/12 05:24:40;;;;;;;186.65;91.90;;;-5.70;99.90;;;;;;5064467;28;20219;-46
2022/01/12 05:27:25;;;;;;;157.18;78.95;;;-5.80;99.90;;;;;;5062025;28;20221;-49
2022/01/12 05:29:52;;;;;;;157.48;83.75;;;-5.70;99.90;;;;;;5063628;28;20273;-48
2022/01/12 05:32:19;;;;;;;145.73;76.70;;;-5.80;99.90;;;;;;5059533;28;20227;-48
2022/01/12 05:34:46;;;;;;;147.38;75.00;;;-5.80;99.90;;;;;;5052145;28;20242;-50
2022/01/12 05:37:14;;;;;;;165.27;79.78;;;-5.80;99.90;;;;;;5062918;28;20445;-47
2022/01/12 05:39:41;;;;;;;163.60;83.05;;;-5.80;99.90;;;;;;5063097;28;20200;-49
2022/01/12 05:42:25;;;;;;;153.63;74.03;;;-6.00;99.90;;;;;;5063071;28;20230;-48
2022/01/12 05:44:52;;;;;;;148.57;75.05;;;-5.90;99.90;;;;;;5064417;28;20195;-45
2022/01/12 05:47:37;;;;;;;143.95;73.35;;;-5.80;99.90;;;;;;5060019;28;20200;-47
2022/01/12 05:50:04;;;;;;;136.07;70.28;;;-5.70;99.90;;;;;;5059881;28;20273;-48
2022/01/12 05:52:32;;;;;;;146.88;71.47;;;-5.70;99.90;;;;;;5055578;28;20564;-46
2022/01/12 05:55:01;;;;;;;146.10;72.13;;;-5.60;99.90;;;;;;5056141;28;20203;-50
2022/01/12 05:57:30;;;;;;;130.82;74.70;;;-5.70;99.90;;;;;;5059810;28;20199;-48
2022/01/12 05:59:59;;;;;;;135.35;72.60;;;-5.70;99.90;;;;;;5061495;28;20212;-49
2022/01/12 06:02:26;;;;;;;128.63;70.80;;;-5.70;99.90;;;;;;5059078;28;20219;-52
2022/01/12 06:04:54;;;;;;;163.65;75.35;;;-5.70;99.90;;;;;;5061536;28;20290;-49
2022/01/12 06:07:22;;;;;;;145.40;74.53;;;-5.70;99.90;;;;;;5061578;28;20479;-48
2022/01/12 06:09:49;;;;;;;140.07;73.38;;;-5.70;99.90;;;;;;5061182;28;20261;-49
2022/01/12 06:12:18;;;;;;;149.75;77.43;;;-5.70;99.90;;;;;;5061576;28;20352;-49
2022/01/12 06:14:45;;;;;;;159.18;77.63;;;-5.60;99.90;;;;;;5061582;28;20212;-52
2022/01/12 06:17:12;;;;;;;149.23;73.80;;;-5.60;99.90;;;;;;5060026;28;20200;-49
2022/01/12 06:19:40;;;;;;;139.35;76.43;;;-5.60;99.90;;;;;;5061801;28;20246;-47
2022/01/12 06:22:08;;;;;;;137.48;74.80;;;-5.60;99.90;;;;;;5061736;28;20199;-47
2022/01/12 06:24:36;;;;;;;157.13;87.10;;;-5.80;99.90;;;;;;5061700;28;20221;-47
2022/01/12 06:27:04;;;;;;;169.02;79.95;;;-5.70;99.90;;;;;;5061639;28;20541;-48
2022/01/12 06:29:41;;;;;;;165.90;82.20;;;-5.50;99.90;;;;;;5058161;28;20247;-46
2022/01/12 06:32:09;;;;;;;167.13;83.18;;;-5.40;99.90;;;;;;5060851;28;20196;-50
2022/01/12 06:34:37;;;;;;;150.07;78.03;;;-5.40;99.90;;;;;;5060805;28;20298;-47
2022/01/12 06:37:04;;;;;;;165.90;85.32;;;-5.40;99.90;;;;;;5059891;28;20405;-46
2022/01/12 06:39:32;;;;;;;155.82;83.35;;;-5.40;99.90;;;;;;5060645;28;20199;-50
2022/01/12 06:41:59;;;;;;;151.00;85.03;;;-5.40;99.90;;;;;;5061242;28;20199;-49
2022/01/12 06:44:27;;;;;;;151.40;84.68;;;-5.40;99.90;;;;;;5061009;28;20220;-49
2022/01/12 06:46:57;;;;;;;169.23;80.30;;;-5.20;99.90;;;;;;5060243;28;20494;-51
2022/01/12 06:49:24;;;;;;;198.80;87.72;;;-5.20;99.90;;;;;;5059308;28;20231;-50
2022/01/12 06:51:53;;;;;;;167.32;85.20;;;-5.20;99.90;;;;;;5058690;28;20526;-48
2022/01/12 06:54:21;;;;;;;182.48;84.70;;;-5.40;99.90;;;;;;5059871;28;20226;-52
2022/01/12 06:56:48;;;;;;;186.30;85.50;;;-5.40;99.90;;;;;;5060076;28;20231;-50
2022/01/12 06:59:15;;;;;;;159.80;81.40;;;-5.40;99.90;;;;;;5060356;28;20200;-50
2022/01/12 07:01:44;;;;;;;174.20;76.63;;;-5.30;99.90;;;;;;5061583;28;20453;-50
2022/01/12 07:04:11;;;;;;;149.43;79.85;;;-5.40;99.90;;;;;;5062578;28;20542;-47
2022/01/12 07:06:39;;;;;;;159.82;76.95;;;-5.30;99.90;;;;;;5064346;28;20568;-52
2022/01/12 07:09:07;;;;;;;185.43;83.40;;;-5.30;99.90;;;;;;5060456;28;20204;-54
2022/01/12 07:11:34;;;;;;;161.05;81.25;;;-5.30;99.90;;;;;;5060811;28;20222;-49
2022/01/12 07:14:01;;;;;;;153.32;77.13;;;-4.80;99.90;;;;;;5060364;28;20257;-51
2022/01/12 07:16:29;;;;;;;153.85;76.45;;;-4.80;99.90;;;;;;5060517;28;20203;-50
2022/01/12 07:18:59;;;;;;;142.40;71.88;;;-4.80;99.90;;;;;;5060082;28;20510;-49
2022/01/12 07:21:26;;;;;;;129.88;69.55;;;-4.90;99.90;;;;;;5059693;28;20200;-49
2022/01/12 07:23:55;;;;;;;162.45;74.82;;;-5.10;99.90;;;;;;5060209;28;20238;-47
2022/01/12 07:26:23;;;;;;;146.85;78.03;;;-5.20;99.90;;;;;;5059351;28;20233;-51
2022/01/12 07:28:51;;;;;;;145.48;79.82;;;-5.30;99.90;;;;;;5059995;28;20230;-51
2022/01/12 07:31:18;;;;;;;268.52;117.60;;;-5.30;99.90;;;;;;5059275;28;20251;-47
2022/01/12 07:33:45;;;;;;;201.05;107.22;;;-5.40;99.90;;;;;;5060119;28;20227;-48
2022/01/12 07:36:14;;;;;;;137.80;67.18;;;-5.20;99.90;;;;;;5058944;28;20211;-49
2022/01/12 07:38:42;;;;;;;115.32;65.82;;;-5.20;99.90;;;;;;5060911;28;20502;-52
2022/01/12 07:41:09;;;;;;;133.70;68.25;;;-4.80;99.90;;;;;;5060856;28;20199;-54
2022/01/12 07:43:36;;;;;;;137.15;66.85;;;-4.60;99.90;;;;;;5062489;28;20319;-47
2022/01/12 07:46:04;;;;;;;136.10;66.57;;;-4.40;99.90;;;;;;5062762;28;20529;-53
2022/01/12 07:48:31;;;;;;;116.90;61.42;;;-4.30;99.90;;;;;;5061553;28;20199;-46
2022/01/12 07:50:59;;;;;;;119.70;60.90;;;-4.30;99.90;;;;;;5059828;28;20414;-48
2022/01/12 07:53:26;;;;;;;122.32;64.78;;;-4.20;99.90;;;;;;5062974;28;20227;-50
2022/01/12 07:55:53;;;;;;;135.70;68.25;;;-4.20;99.90;;;;;;5063416;28;20195;-49
2022/01/12 07:58:21;;;;;;;140.45;69.88;;;-4.30;99.90;;;;;;5060236;28;20202;-50
2022/01/12 08:00:48;;;;;;;120.82;66.93;;;-4.20;99.90;;;;;;5059728;28;20209;-49
2022/01/12 08:03:20;;;;;;;128.32;63.80;;;-4.10;99.90;;;;;;5059850;28;20226;-51
2022/01/12 08:05:47;;;;;;;147.85;68.68;;;-3.90;99.90;;;;;;5060103;28;20559;-46
2022/01/12 08:08:15;;;;;;;140.77;68.82;;;-3.50;99.90;;;;;;5059894;28;20229;-54
2022/01/12 08:10:43;;;;;;;138.88;70.10;;;-3.40;99.90;;;;;;5061828;28;20254;-49
2022/01/12 08:13:11;;;;;;;116.38;62.20;;;-3.00;99.90;;;;;;5067473;28;20211;-53
2022/01/12 08:15:38;;;;;;;149.23;71.50;;;-3.10;99.90;;;;;;5069617;28;20206;-49
2022/01/12 08:18:06;;;;;;;138.80;68.30;;;-3.20;99.90;;;;;;5068379;28;20406;-56
2022/01/12 08:20:33;;;;;;;138.02;62.42;;;-3.50;99.90;;;;;;5067977;28;20199;-48
2022/01/12 08:23:01;;;;;;;128.10;63.92;;;-3.60;99.90;;;;;;5066759;28;20233;-49
2022/01/12 08:25:29;;;;;;;120.28;63.42;;;-3.60;99.90;;;;;;5066399;28;20225;-50
2022/01/12 08:27:56;;;;;;;122.55;68.00;;;-3.80;99.90;;;;;;5066333;28;20203;-49
2022/01/12 08:30:28;;;;;;;123.47;59.60;;;-3.60;99.90;;;;;;5066909;28;20241;-55
2022/01/12 08:32:56;;;;;;;120.85;61.35;;;-3.30;99.90;;;;;;5074850;28;20243;-51
2022/01/12 08:35:24;;;;;;;114.20;56.83;;;-2.90;99.90;;;;;;5073455;28;20199;-54
2022/01/12 08:37:52;;;;;;;113.13;58.92;;;-2.90;99.90;;;;;;5074400;28;20196;-57
2022/01/12 08:40:19;;;;;;;124.07;63.45;;;-2.80;99.90;;;;;;5075008;28;20508;-45
2022/01/12 08:42:47;;;;;;;120.50;62.05;;;-2.80;99.90;;;;;;5073862;28;20219;-53
2022/01/12 08:45:16;;;;;;;139.82;64.70;;;-2.80;99.90;;;;;;5072285;28;20200;-49
2022/01/12 08:47:45;;;;;;;129.25;66.10;;;-2.90;99.90;;;;;;5069375;28;20199;-50
2022/01/12 08:50:13;;;;;;;126.88;61.83;;;-3.10;99.90;;;;;;5068506;28;20567;-53
2022/01/12 08:52:44;;;;;;;122.82;63.83;;;-3.10;99.90;;;;;;5069346;28;20207;-52
2022/01/12 08:55:17;;;;;;;115.85;62.33;;;-3.00;99.90;;;;;;5068211;28;20242;-55
2022/01/12 08:57:44;;;;;;;115.63;58.35;;;-2.90;99.90;;;;;;5066382;28;20195;-49
2022/01/12 09:00:13;;;;;;;112.25;60.40;;;-2.60;99.90;;;;;;5065880;28;20199;-50
2022/01/12 09:02:41;;;;;;;110.80;60.75;;;-2.60;99.90;;;;;;5066558;28;20230;-54
2022/01/12 09:05:11;;;;;;;125.35;60.33;;;-2.80;99.90;;;;;;5065538;28;20302;-48
2022/01/12 09:07:39;;;;;;;112.90;57.25;;;-2.80;99.90;;;;;;5066107;28;20196;-49
2022/01/12 09:10:06;;;;;;;118.45;61.40;;;-2.70;99.90;;;;;;5066346;28;20225;-48
2022/01/12 09:12:36;;;;;;;121.78;64.95;;;-2.70;99.90;;;;;;5066502;28;20203;-49
2022/01/12 09:15:05;;;;;;;117.03;62.80;;;-2.30;99.90;;;;;;5065341;28;20219;-50
2022/01/12 09:17:33;;;;;;;127.82;61.72;;;-2.00;99.90;;;;;;5065570;28;20210;-51
2022/01/12 09:20:03;;;;;;;117.47;64.20;;;-1.90;99.90;;;;;;5066916;28;20522;-48
2022/01/12 09:22:31;;;;;;;104.93;56.20;;;-1.80;99.90;;;;;;5064628;28;20400;-53
2022/01/12 09:24:58;;;;;;;134.75;61.67;;;-1.90;99.90;;;;;;5063439;28;20209;-47
2022/01/12 09:27:25;;;;;;;104.43;55.72;;;-1.80;99.90;;;;;;5062898;28;20211;-51
2022/01/12 09:29:53;;;;;;;104.50;55.85;;;-1.40;99.90;;;;;;5063190;28;20195;-46
2022/01/12 09:32:20;;;;;;;116.45;56.50;;;-1.70;99.90;;;;;;5063232;28;20200;-48
2022/01/12 09:34:48;;;;;;;123.57;56.50;;;-1.60;99.90;;;;;;5062968;28;20438;-48
2022/01/12 09:37:16;;;;;;;111.78;57.03;;;-1.60;99.90;;;;;;5062936;28;20249;-50
2022/01/12 09:39:43;;;;;;;89.68;54.05;;;-1.40;99.90;;;;;;5061913;28;20207;-50
2022/01/12 09:42:11;;;;;;;92.15;49.28;;;-1.40;99.90;;;;;;5062938;28;20537;-48
2022/01/12 09:44:44;;;;;;;97.97;51.28;;;-1.40;99.90;;;;;;5062595;28;20216;-47
2022/01/12 09:47:12;;;;;;;97.13;51.33;;;-1.40;99.90;;;;;;5061850;28;20233;-48
2022/01/12 09:49:42;;;;;;;100.97;52.17;;;-1.10;99.90;;;;;;5062177;28;20202;-50
2022/01/12 09:52:10;;;;;;;95.57;55.65;;;-0.80;99.90;;;;;;5061984;28;20410;-48
2022/01/12 09:54:38;;;;;;;92.00;53.78;;;-0.70;99.90;;;;;;5062587;28;20215;-47
2022/01/12 09:57:06;;;;;;;97.35;49.58;;;-0.80;99.90;;;;;;5062174;28;20195;-52
2022/01/12 09:59:33;;;;;;;95.10;51.20;;;-0.80;99.90;;;;;;5062717;28;20399;-50
2022/01/12 10:02:01;;;;;;;89.20;49.20;;;-0.60;99.90;;;;;;5061207;28;20233;-48
2022/01/12 10:04:31;;;;;;;96.78;48.70;;;-0.60;99.90;;;;;;5061426;28;20592;-49
2022/01/12 10:07:00;;;;;;;88.13;49.05;;;-0.70;99.90;;;;;;5062370;28;20418;-53
2022/01/12 10:09:35;;;;;;;102.32;51.15;;;-1.00;99.90;;;;;;5063536;28;20512;-47
2022/01/12 10:12:05;;;;;;;91.68;48.33;;;-1.00;99.90;;;;;;5062650;28;20231;-51
2022/01/12 10:14:43;;;;;;;86.97;47.03;;;-1.10;99.90;;;;;;5062733;28;20226;-51
2022/01/12 10:17:11;;;;;;;78.45;47.72;;;-1.20;99.90;;;;;;5062400;28;20196;-49
2022/01/12 10:19:40;;;;;;;112.05;55.97;;;-1.20;99.90;;;;;;5062588;28;20196;-48
2022/01/12 10:22:10;;;;;;;89.85;47.60;;;-1.30;99.90;;;;;;5062580;28;20314;-47
2022/01/12 10:24:39;;;;;;;84.85;47.70;;;-1.20;99.90;;;;;;5062945;28;20438;-52
2022/01/12 10:27:19;;;;;;;80.55;46.85;;;-1.20;99.90;;;;;;5061513;28;20206;-55
2022/01/12 10:29:56;;;;;;;79.22;43.13;;;-1.20;99.90;;;;;;5066146;28;20199;-49
2022/01/12 10:32:23;;;;;;;67.50;39.90;;;-1.00;99.90;;;;;;5061906;28;20293;-45
2022/01/12 10:34:51;;;;;;;74.68;42.05;;;-1.10;99.90;;;;;;5061349;28;20206;-50
2022/01/12 10:37:22;;;;;;;93.03;46.67;;;-1.10;99.90;;;;;;5065095;28;20196;-47
2022/01/12 10:39:51;;;;;;;77.95;39.40;;;-1.10;99.90;;;;;;5066968;28;20211;-49
2022/01/12 10:42:19;;;;;;;71.47;41.15;;;-1.20;99.90;;;;;;5066267;28;20210;-55
2022/01/12 10:44:49;;;;;;;72.18;35.70;;;-1.10;99.90;;;;;;5064405;28;20219;-52
2022/01/12 10:47:19;;;;;;;68.43;38.92;;;-1.00;99.90;;;;;;5062281;28;20257;-51
2022/01/12 10:49:58;;;;;;;76.35;34.72;;;-0.90;99.90;;;;;;5061187;28;20245;-50
2022/01/12 10:52:30;;;;;;;75.38;36.75;;;-1.00;99.90;;;;;;5061586;28;20211;-48
2022/01/12 10:55:05;;;;;;;72.43;38.78;;;-0.80;99.90;;;;;;5061225;28;20210;-49
2022/01/12 10:57:35;;;;;;;77.90;35.17;;;-0.80;99.90;;;;;;5061054;28;20312;-48
2022/01/12 11:00:07;;;;;;;66.57;34.80;;;-0.80;99.90;;;;;;5060814;28;20200;-48
2022/01/12 11:02:39;;;;;;;53.22;33.08;;;-0.60;99.90;;;;;;5060508;28;20241;-49
2022/01/12 11:05:08;;;;;;;72.68;36.47;;;-0.40;99.90;;;;;;5060827;28;20490;-49
2022/01/12 11:07:35;;;;;;;62.10;33.33;;;-0.20;99.90;;;;;;5060286;28;20198;-52
2022/01/12 11:10:06;;;;;;;58.28;33.38;;;0.10;99.90;;;;;;5060555;28;20441;-46
2022/01/12 11:12:35;;;;;;;61.33;31.25;;;0.20;99.90;;;;;;5060440;28;20235;-52
2022/01/12 11:15:11;;;;;;;59.13;29.58;;;0.40;99.90;;;;;;5061098;28;20211;-52
2022/01/12 11:17:40;;;;;;;55.65;26.33;;;0.60;99.90;;;;;;5061009;28;20241;-47
2022/01/12 11:20:13;;;;;;;49.13;23.63;;;0.50;99.90;;;;;;5060116;28;20479;-47
2022/01/12 11:22:43;;;;;;;40.72;23.60;;;0.90;99.90;;;;;;5060740;28;20199;-53
2022/01/12 11:25:23;;;;;;;63.47;27.25;;;0.90;99.90;;;;;;5060390;28;20253;-50
2022/01/12 11:28:10;;;;;;;41.42;24.27;;;1.10;99.90;;;;;;5060247;28;20195;-49
2022/01/12 11:30:39;;;;;;;44.40;22.50;;;1.20;99.90;;;;;;5060042;28;20534;-49
2022/01/12 11:33:09;;;;;;;39.90;19.55;;;1.10;99.90;;;;;;5059434;28;20215;-48
2022/01/12 11:35:44;;;;;;;29.63;17.50;;;1.10;99.90;;;;;;5060213;28;20253;-50
2022/01/12 11:38:23;;;;;;;28.13;17.55;;;1.10;99.90;;;;;;5059578;28;20262;-51
2022/01/12 11:40:54;;;;;;;28.90;17.95;;;1.10;99.90;;;;;;5060000;28;20261;-50
2022/01/12 11:43:29;;;;;;;24.50;16.83;;;1.10;99.90;;;;;;5059295;28;20430;-48
2022/01/12 11:46:05;;;;;;;24.55;15.02;;;1.10;99.90;;;;;;5058984;28;20561;-49
2022/01/12 11:48:35;;;;;;;25.23;16.45;;;1.10;99.90;;;;;;5059647;28;20209;-49
2022/01/12 11:51:03;;;;;;;34.35;18.38;;;1.00;99.90;;;;;;5060035;28;20457;-53
2022/01/12 11:53:31;;;;;;;35.92;18.52;;;1.10;99.90;;;;;;5059518;28;20323;-50
2022/01/12 11:56:12;;;;;;;33.95;19.33;;;1.30;99.90;;;;;;5059745;28;20234;-49
2022/01/12 11:59:10;;;;;;;32.20;18.13;;;1.40;99.90;;;;;;5059937;28;20196;-50
2022/01/12 12:01:43;;;;;;;27.67;18.58;;;1.50;99.90;;;;;;5047215;28;20211;-49
2022/01/12 12:04:52;;;;;;;30.35;18.80;;;1.70;99.90;;;;;;5059961;28;20755;-50
2022/01/12 12:07:19;;;;;;;33.53;18.05;;;1.70;99.90;;;;;;5054813;28;20206;-52
2022/01/12 12:09:53;;;;;;;35.40;19.52;;;1.50;99.90;;;;;;5064697;28;20207;-55
2022/01/12 12:12:28;;;;;;;32.55;19.52;;;1.50;99.90;;;;;;5061356;28;20361;-51
2022/01/12 12:15:00;;;;;;;34.53;16.65;;;1.40;99.90;;;;;;5060373;28;20195;-54
2022/01/12 12:17:32;;;;;;;29.92;16.40;;;1.40;99.90;;;;;;5057260;28;20333;-48
2022/01/12 12:19:59;;;;;;;27.50;16.30;;;1.40;99.90;;;;;;5049923;28;20206;-46
2022/01/12 12:22:33;;;;;;;30.95;17.10;;;1.30;99.90;;;;;;5046279;28;20199;-50
2022/01/12 12:25:09;;;;;;;23.35;14.32;;;1.10;99.90;;;;;;5045423;28;20351;-53
2022/01/12 12:27:43;;;;;;;22.80;13.57;;;1.00;99.90;;;;;;5043866;28;20207;-47
2022/01/12 12:30:13;;;;;;;22.02;14.15;;;0.90;99.90;;;;;;5053006;28;20395;-51
2022/01/12 12:32:46;;;;;;;22.80;12.88;;;1.00;99.90;;;;;;5059841;28;20266;-51
2022/01/12 12:35:19;;;;;;;29.65;15.95;;;1.20;99.90;;;;;;5058974;28;20259;-47
2022/01/12 12:38:00;;;;;;;21.65;13.90;;;1.30;99.90;;;;;;5059788;28;20203;-48
2022/01/12 12:40:42;;;;;;;21.08;12.55;;;1.60;99.90;;;;;;5060050;28;20411;-49
2022/01/12 12:43:17;;;;;;;17.45;12.50;;;1.80;99.90;;;;;;5060093;28;20226;-48
2022/01/12 12:45:56;;;;;;;17.48;13.32;;;1.70;99.90;;;;;;5059699;28;20195;-48
2022/01/12 12:48:26;;;;;;;17.83;11.95;;;1.80;99.90;;;;;;5059657;28;20202;-47
2022/01/12 12:51:01;;;;;;;20.33;13.90;;;1.90;99.90;;;;;;5059327;28;20514;-49
2022/01/12 12:53:34;;;;;;;20.67;14.13;;;2.00;99.90;;;;;;5059341;28;20234;-50
2022/01/12 12:56:04;;;;;;;19.30;13.10;;;2.30;99.90;;;;;;5060511;28;20242;-51
2022/01/12 12:58:33;;;;;;;26.65;15.25;;;2.80;99.90;;;;;;5063778;28;20195;-49
2022/01/12 13:01:13;;;;;;;23.63;16.15;;;2.90;99.90;;;;;;5060609;28;20495;-46
2022/01/12 13:03:48;;;;;;;20.85;13.18;;;3.00;99.90;;;;;;5062437;28;20656;-47
2022/01/12 13:06:30;;;;;;;19.02;11.48;;;3.10;99.90;;;;;;5063461;28;20202;-50
2022/01/12 13:09:06;;;;;;;19.92;13.30;;;3.30;99.90;;;;;;5064626;28;20208;-50
2022/01/12 13:11:37;;;;;;;20.85;14.38;;;3.20;99.90;;;;;;5064638;28;20273;-50
2022/01/12 13:14:09;;;;;;;25.25;15.30;;;2.80;99.90;;;;;;5065400;28;20259;-47
2022/01/12 13:16:52;;;;;;;28.63;13.50;;;2.70;99.90;;;;;;5065650;28;20249;-47
2022/01/12 13:21:07;;;;;;;17.05;12.45;;;2.60;99.90;;;;;;5064353;28;20263;-48
2022/01/12 13:22:33;;;;;;;25.70;15.07;;;2.90;99.90;;;;;;5062647;28;20262;-52
2022/01/12 13:25:04;;;;;;;16.05;11.88;;;2.80;99.90;;;;;;5062906;28;20200;-49
2022/01/12 13:27:32;;;;;;;23.15;14.68;;;2.90;99.90;;;;;;5062453;28;20264;-49
2022/01/12 13:30:00;;;;;;;20.40;15.02;;;2.40;99.90;;;;;;5063056;28;20234;-50
2022/01/12 13:32:27;;;;;;;25.80;14.40;;;2.30;99.90;;;;;;5062238;28;20295;-51
2022/01/12 13:35:00;;;;;;;24.33;13.15;;;2.00;99.90;;;;;;5062351;28;20196;-50
2022/01/12 13:37:28;;;;;;;23.17;14.35;;;2.00;99.90;;;;;;5062030;28;20192;-53
2022/01/12 13:40:07;;;;;;;26.63;14.75;;;2.00;99.90;;;;;;5061962;28;20195;-51
2022/01/12 13:42:54;;;;;;;25.05;14.57;;;2.10;99.90;;;;;;5062937;28;20282;-50
2022/01/12 13:45:30;;;;;;;20.05;14.10;;;2.10;99.90;;;;;;5062127;28;20366;-48
2022/01/12 13:47:59;;;;;;;23.52;14.07;;;1.80;99.90;;;;;;5063341;28;20230;-50
2022/01/12 13:50:36;;;;;;;24.05;13.57;;;1.70;99.90;;;;;;5064822;28;20222;-55
2022/01/12 13:53:04;;;;;;;24.45;15.68;;;1.80;99.90;;;;;;5063542;28;20222;-50